Time;durP1;ratioP1;P1;durP2;ratioP2;P2;SDS_P1;SDS_P2;PMS_P1;PMS_P2;Temp;Humidity;BMP_temperature;BMP_pressure;BME280_temperature;BME280_humidity;BME280_pressure;Samples;Min_cycle;Max_cycle;Signal;HPM_P1;HPM_P2
2022/10/02 00:00:04;;;;;;;39.53;7.30;;;;;;;10.57;100.00;101419.81;5013494;28;20026;-73
2022/10/02 00:02:38;;;;;;;48.05;8.48;;;;;;;10.63;100.00;101424.97;4999770;28;20049;-73
2022/10/02 00:05:06;;;;;;;39.65;7.13;;;;;;;10.60;100.00;101422.38;5013889;28;20032;-73
2022/10/02 00:07:40;;;;;;;41.90;7.35;;;;;;;10.59;100.00;101428.47;5012741;28;20033;-73
2022/10/02 00:10:15;;;;;;;34.97;6.88;;;;;;;10.60;100.00;101425.84;5013655;28;20029;-73
2022/10/02 00:12:43;;;;;;;32.90;7.07;;;;;;;10.61;100.00;101431.94;5012575;28;20481;-73
2022/10/02 00:15:15;;;;;;;37.03;6.63;;;;;;;10.62;100.00;101436.25;5013065;28;20029;-73
2022/10/02 00:17:45;;;;;;;36.92;7.22;;;;;;;10.70;100.00;101434.41;5012936;28;20029;-73
2022/10/02 00:20:16;;;;;;;41.05;6.85;;;;;;;10.67;100.00;101437.06;5013484;28;20030;-72
2022/10/02 00:22:58;;;;;;;39.78;7.00;;;;;;;10.69;100.00;101446.59;5012202;28;20378;-73
2022/10/02 00:25:44;;;;;;;45.35;7.88;;;;;;;10.73;100.00;101442.19;5013065;28;20044;-73
2022/10/02 00:28:27;;;;;;;45.38;7.72;;;;;;;10.72;100.00;101440.44;5001060;28;20033;-73
2022/10/02 00:30:58;;;;;;;34.60;7.10;;;;;;;10.70;100.00;101450.06;5007892;28;20489;-73
2022/10/02 00:33:48;;;;;;;44.83;7.15;;;;;;;10.66;100.00;101446.63;5011843;28;20121;-73
2022/10/02 00:36:44;;;;;;;36.83;6.50;;;;;;;10.61;100.00;101455.41;5011704;28;20040;-73
2022/10/02 00:39:54;;;;;;;46.47;7.75;;;;;;;10.60;100.00;101454.53;5011344;28;20058;-73
2022/10/02 00:42:37;;;;;;;37.95;6.70;;;;;;;10.61;100.00;101453.66;4943272;28;20192;-73
2022/10/02 00:45:25;;;;;;;45.47;6.90;;;;;;;10.61;100.00;101458.00;5012999;28;20482;-73
2022/10/02 00:48:02;;;;;;;43.55;7.25;;;;;;;10.66;100.00;101454.47;5012894;28;20049;-73
2022/10/02 00:50:48;;;;;;;51.80;6.90;;;;;;;10.68;100.00;101454.41;5012145;28;20038;-73
2022/10/02 00:53:19;;;;;;;39.42;6.32;;;;;;;10.71;100.00;101451.78;5012629;28;20033;-73
2022/10/02 00:55:53;;;;;;;50.63;7.95;;;;;;;10.70;100.00;101453.53;5012237;28;20105;-73
2022/10/02 00:58:39;;;;;;;44.97;6.80;;;;;;;10.69;100.00;101457.03;5010134;28;20048;-73
2022/10/02 01:01:10;;;;;;;42.33;8.25;;;;;;;10.74;100.00;101451.72;5012358;28;20033;-73
2022/10/02 01:03:40;;;;;;;42.63;7.43;;;;;;;10.73;100.00;101457.84;5010039;28;20033;-73
2022/10/02 01:06:10;;;;;;;58.03;8.05;;;;;;;10.70;100.00;101458.72;5014745;28;20061;-73
2022/10/02 01:08:36;;;;;;;39.08;7.78;;;;;;;10.68;100.00;101460.50;5010150;28;20029;-73
2022/10/02 01:11:02;;;;;;;43.28;7.97;;;;;;;10.65;100.00;101455.31;5012189;28;20022;-73
2022/10/02 01:13:30;;;;;;;47.40;7.15;;;;;;;10.71;100.00;101468.28;5009968;28;20045;-73
2022/10/02 01:15:59;;;;;;;45.58;6.68;;;;;;;10.76;100.00;101469.09;5001187;28;20044;-73
2022/10/02 01:18:26;;;;;;;49.47;6.93;;;;;;;10.79;100.00;101462.97;5011019;28;20501;-73
2022/10/02 01:20:57;;;;;;;51.30;8.00;;;;;;;10.77;100.00;101460.38;5011761;28;20038;-73
2022/10/02 01:23:35;;;;;;;46.38;7.82;;;;;;;10.83;100.00;101455.97;5010523;28;20053;-73
2022/10/02 01:26:00;;;;;;;50.53;7.35;;;;;;;10.83;100.00;101454.22;5011256;28;20474;-73
2022/10/02 01:28:26;;;;;;;47.85;7.97;;;;;;;10.86;100.00;101448.09;5011065;28;20041;-73
2022/10/02 01:30:56;;;;;;;49.17;7.10;;;;;;;10.91;100.00;101449.72;5011416;28;20033;-72
2022/10/02 01:33:22;;;;;;;52.58;8.02;;;;;;;10.90;100.00;101440.19;5024701;28;20022;-73
2022/10/02 01:35:48;;;;;;;53.88;7.70;;;;;;;10.91;100.00;101447.13;5015359;28;20551;-73
2022/10/02 01:38:17;;;;;;;51.85;7.78;;;;;;;10.93;100.00;101455.78;5011585;28;20462;-73
2022/10/02 01:40:43;;;;;;;52.45;7.82;;;;;;;10.92;100.00;101454.06;5010983;28;20041;-73
2022/10/02 01:43:27;;;;;;;54.97;7.68;;;;;;;10.92;100.00;101461.91;5011614;28;20385;-73
2022/10/02 01:46:11;;;;;;;50.15;8.70;;;;;;;10.90;100.00;101455.84;5010895;28;20050;-73
2022/10/02 01:49:07;;;;;;;49.28;7.63;;;;;;;10.91;100.00;101457.56;5011059;28;20034;-73
2022/10/02 01:51:42;;;;;;;48.13;7.75;;;;;;;10.95;100.00;101464.47;5009893;28;20040;-73
2022/10/02 01:54:30;;;;;;;57.60;7.65;;;;;;;10.96;100.00;101470.53;5010684;28;20026;-73
2022/10/02 01:57:10;;;;;;;52.90;7.65;;;;;;;10.95;100.00;101454.03;5007206;28;20100;-73
2022/10/02 01:59:55;;;;;;;55.70;8.20;;;;;;;11.01;100.00;101453.91;5011100;28;20030;-73
2022/10/02 02:02:45;;;;;;;46.17;7.38;;;;;;;10.99;100.00;101460.91;5010382;28;20025;-73
2022/10/02 02:05:15;;;;;;;49.40;8.23;;;;;;;11.09;100.00;101458.19;5013887;28;20402;-73
2022/10/02 02:07:54;;;;;;;53.75;8.13;;;;;;;11.08;100.00;101456.44;5010571;28;20029;-73
2022/10/02 02:10:37;;;;;;;69.22;8.48;;;;;;;11.10;100.00;101447.69;5013767;28;20458;-73
2022/10/02 02:13:11;;;;;;;55.75;8.43;;;;;;;11.15;100.00;101455.44;5000035;28;20057;-73
2022/10/02 02:15:46;;;;;;;50.92;7.95;;;;;;;11.16;100.00;101446.75;5008589;28;20021;-73
2022/10/02 02:18:17;;;;;;;60.35;8.73;;;;;;;11.19;100.00;101454.53;5010969;28;20022;-73
2022/10/02 02:20:49;;;;;;;49.08;7.53;;;;;;;11.12;100.00;101448.53;5009588;28;20076;-73
2022/10/02 02:23:21;;;;;;;46.58;7.32;;;;;;;11.13;100.00;101455.47;5003574;28;20036;-73
2022/10/02 02:25:51;;;;;;;49.90;8.18;;;;;;;11.22;100.00;101464.91;5006186;28;20022;-73
2022/10/02 02:28:19;;;;;;;47.55;8.45;;;;;;;11.28;100.00;101467.44;5009993;28;20152;-73
2022/10/02 02:30:48;;;;;;;55.35;8.90;;;;;;;11.31;100.00;101469.09;5010696;28;20076;-73
2022/10/02 02:33:21;;;;;;;62.92;9.38;;;;;;;11.38;100.00;101465.50;5010017;28;20072;-73
2022/10/02 02:35:52;;;;;;;53.80;8.38;;;;;;;11.47;100.00;101471.44;5011167;28;20026;-73
2022/10/02 02:38:26;;;;;;;60.60;9.13;;;;;;;11.56;100.00;101485.22;5010274;28;20030;-73
2022/10/02 02:40:56;;;;;;;48.42;8.32;;;;;;;11.54;100.00;101471.31;5011711;28;20466;-74
2022/10/02 02:43:28;;;;;;;48.10;8.38;;;;;;;11.57;100.00;101453.84;5008992;28;20540;-75
2022/10/02 02:45:59;;;;;;;42.55;8.40;;;;;;;11.58;100.00;101463.44;5015035;28;20042;-75
2022/10/02 02:48:38;;;;;;;41.13;7.55;;;;;;;11.59;100.00;101461.69;5013705;28;20445;-75
2022/10/02 02:51:28;;;;;;;50.35;8.02;;;;;;;11.55;100.00;101462.63;5014947;28;20034;-75
2022/10/02 02:54:06;;;;;;;39.72;8.13;;;;;;;11.53;100.00;101467.84;5007698;28;20474;-75
2022/10/02 02:56:32;;;;;;;32.45;7.35;;;;;;;11.46;100.00;101467.09;5012508;28;20038;-74
2022/10/02 02:59:04;;;;;;;43.83;7.63;;;;;;;11.44;100.00;101474.13;5012830;28;20454;-74
2022/10/02 03:01:29;;;;;;;32.42;5.97;;;;;;;11.40;100.00;101469.81;5014161;28;20134;-74
2022/10/02 03:03:54;;;;;;;34.97;5.82;;;;;;;11.35;100.00;101469.03;5013403;28;20463;-74
2022/10/02 03:06:20;;;;;;;27.10;5.07;;;;;;;11.26;100.00;101469.19;5006839;28;20018;-74
2022/10/02 03:08:49;;;;;;;26.27;4.75;;;;;;;11.18;100.00;101471.03;5013350;28;20037;-74
2022/10/02 03:11:35;;;;;;;25.25;4.47;;;;;;;11.10;100.00;101473.78;5013700;28;20025;-74
2022/10/02 03:14:27;;;;;;;19.63;4.70;;;;;;;11.06;100.00;101469.50;5013527;28;20022;-74
2022/10/02 03:17:28;;;;;;;19.90;3.88;;;;;;;10.96;100.00;101466.19;5016179;28;20061;-74
2022/10/02 03:20:19;;;;;;;23.15;3.83;;;;;;;10.90;100.00;101476.69;5006464;28;20390;-74
2022/10/02 03:23:02;;;;;;;16.17;3.80;;;;;;;10.87;100.00;101476.75;5011033;28;20076;-74
2022/10/02 03:25:44;;;;;;;17.77;3.33;;;;;;;10.86;100.00;101475.03;5012941;28;20038;-74
2022/10/02 03:28:15;;;;;;;16.85;3.70;;;;;;;10.90;100.00;101476.69;5014011;28;20081;-74
2022/10/02 03:30:42;;;;;;;20.55;3.70;;;;;;;10.92;100.00;101474.06;5013870;28;20097;-74
2022/10/02 03:33:11;;;;;;;16.98;4.13;;;;;;;10.92;100.00;101469.72;5012621;28;20040;-74
2022/10/02 03:35:38;;;;;;;20.90;4.65;;;;;;;10.89;100.00;101466.28;5013867;28;20029;-74
2022/10/02 03:38:06;;;;;;;18.27;4.82;;;;;;;10.85;100.00;101468.06;5014811;28;20025;-74
2022/10/02 03:40:32;;;;;;;16.15;5.20;;;;;;;10.87;100.00;101476.75;5012481;28;20034;-74
2022/10/02 03:42:57;;;;;;;19.17;4.90;;;;;;;10.88;100.00;101475.00;5012668;28;20030;-74
2022/10/02 03:45:24;;;;;;;18.17;4.60;;;;;;;10.85;100.00;101482.88;5013165;28;20032;-74
2022/10/02 03:47:49;;;;;;;17.80;4.57;;;;;;;10.76;100.00;101476.06;5013466;28;20386;-74
2022/10/02 03:50:15;;;;;;;29.00;4.80;;;;;;;10.74;100.00;101486.50;5014324;28;20044;-74
2022/10/02 03:52:41;;;;;;;18.90;4.88;;;;;;;10.71;100.00;101483.06;5012367;28;20088;-74
2022/10/02 03:55:28;;;;;;;15.35;5.22;;;;;;;10.77;100.00;101496.03;5012677;28;20389;-74
2022/10/02 03:57:54;;;;;;;15.95;5.13;;;;;;;10.81;100.00;101512.50;5013522;28;20397;-74
2022/10/02 04:00:26;;;;;;;20.25;5.45;;;;;;;10.85;100.00;101499.38;5011979;28;20053;-74
2022/10/02 04:02:57;;;;;;;26.80;7.03;;;;;;;10.89;100.00;101490.63;5013793;28;20041;-74
2022/10/02 04:05:43;;;;;;;24.50;7.18;;;;;;;10.91;100.00;101488.00;5012817;28;20032;-74
2022/10/02 04:08:34;;;;;;;28.65;7.78;;;;;;;10.92;100.00;101485.38;5013007;28;20113;-74
2022/10/02 04:11:05;;;;;;;29.48;9.55;;;;;;;10.92;100.00;101495.81;5002463;28;20116;-74
2022/10/02 04:13:33;;;;;;;30.40;11.23;;;;;;;10.95;100.00;101485.34;5011306;28;20034;-74
2022/10/02 04:16:04;;;;;;;45.30;14.65;;;;;;;11.00;100.00;101483.50;5013309;28;20478;-74
2022/10/02 04:18:34;;;;;;;44.65;13.15;;;;;;;11.00;100.00;101486.13;5012344;28;20034;-74
2022/10/02 04:21:15;;;;;;;40.00;13.57;;;;;;;11.00;100.00;101493.94;5012121;28;20084;-74
2022/10/02 04:23:49;;;;;;;40.83;13.98;;;;;;;11.00;100.00;101488.72;5012080;28;20109;-75
2022/10/02 04:26:23;;;;;;;44.33;14.48;;;;;;;10.99;100.00;101481.78;5012915;28;20397;-74
2022/10/02 04:28:55;;;;;;;43.30;16.42;;;;;;;11.04;100.00;101499.97;5012601;28;20045;-74
2022/10/02 04:31:23;;;;;;;50.25;18.23;;;;;;;11.08;100.00;101485.13;5012641;28;20524;-74
2022/10/02 04:33:48;;;;;;;50.72;17.90;;;;;;;11.07;100.00;101486.88;5020957;28;20037;-75
2022/10/02 04:36:35;;;;;;;56.10;18.92;;;;;;;11.12;100.00;101490.28;5015827;28;20509;-74
2022/10/02 04:39:31;;;;;;;47.70;18.42;;;;;;;11.13;100.00;101491.16;5013035;28;20045;-75
2022/10/02 04:42:14;;;;;;;61.60;20.92;;;;;;;11.19;100.00;101489.31;5000044;28;20072;-74
2022/10/02 04:45:04;;;;;;;54.42;20.40;;;;;;;11.24;100.00;101507.50;5011900;28;20041;-74
2022/10/02 04:47:45;;;;;;;56.35;20.75;;;;;;;11.24;100.00;101504.88;5011942;28;20080;-75
2022/10/02 04:50:47;;;;;;;60.63;21.00;;;;;;;11.27;100.00;101517.03;5011408;28;20030;-74
2022/10/02 04:53:42;;;;;;;85.35;22.05;;;;;;;11.30;100.00;101514.38;5008157;28;20029;-75
2022/10/02 04:56:36;;;;;;;61.33;24.23;;;;;;;11.34;100.00;101519.50;5011255;28;20481;-78
2022/10/02 04:59:24;;;;;;;63.40;21.80;;;;;;;11.37;100.00;101519.47;5013074;28;20072;-78
2022/10/02 05:01:58;;;;;;;66.95;23.15;;;;;;;11.38;100.00;101525.53;5011886;28;20037;-77
2022/10/02 05:05:01;;;;;;;57.45;23.33;;;;;;;11.42;100.00;101522.03;5017103;28;20083;-77
2022/10/02 05:07:45;;;;;;;69.65;24.42;;;;;;;11.43;100.00;101524.59;5010827;28;20138;-76
2022/10/02 05:10:35;;;;;;;60.70;24.95;;;;;;;11.44;100.00;101530.69;5015038;28;20489;-75
2022/10/02 05:13:31;;;;;;;92.55;26.55;;;;;;;11.45;100.00;101527.19;5003354;28;20548;-75
2022/10/02 05:16:22;;;;;;;94.43;27.70;;;;;;;11.48;100.00;101519.31;5010110;28;20057;-77
2022/10/02 05:18:59;;;;;;;86.30;27.77;;;;;;;11.53;100.00;101520.09;5009505;28;20061;-77
2022/10/02 05:21:39;;;;;;;101.68;29.67;;;;;;;11.52;100.00;101523.59;5011728;28;20058;-76
2022/10/02 05:24:29;;;;;;;112.82;31.58;;;;;;;11.49;100.00;101527.09;5010258;28;20025;-76
2022/10/02 05:27:05;;;;;;;101.75;30.10;;;;;;;11.48;100.00;101533.22;5009989;28;20034;-75
2022/10/02 05:30:04;;;;;;;80.93;28.25;;;;;;;11.46;100.00;101539.34;5010937;28;20109;-75
2022/10/02 05:32:44;;;;;;;86.00;29.42;;;;;;;11.47;100.00;101541.06;5010841;28;20089;-75
2022/10/02 05:35:23;;;;;;;95.50;29.05;;;;;;;11.48;100.00;101543.66;5005329;28;20087;-75
2022/10/02 05:38:10;;;;;;;96.40;27.67;;;;;;;11.52;100.00;101546.22;5010705;28;20112;-75
2022/10/02 05:40:47;;;;;;;95.68;27.60;;;;;;;11.48;100.00;101543.66;5011537;28;20107;-75
2022/10/02 05:43:29;;;;;;;105.65;27.30;;;;;;;11.48;100.00;101551.50;5011541;28;20041;-75
2022/10/02 05:46:00;;;;;;;94.45;23.67;;;;;;;11.56;100.00;101555.75;5014795;28;20045;-75
2022/10/02 05:48:32;;;;;;;83.18;22.05;;;;;;;11.58;100.00;101554.84;5011351;28;20022;-75
2022/10/02 05:51:06;;;;;;;107.22;24.00;;;;;;;11.57;100.00;101544.41;5012216;28;20041;-76
2022/10/02 05:53:38;;;;;;;84.10;22.52;;;;;;;11.58;100.00;101554.84;5009940;28;20398;-75
2022/10/02 05:56:27;;;;;;;92.07;20.27;;;;;;;11.61;100.00;101544.34;5011104;28;20486;-75
2022/10/02 05:59:21;;;;;;;73.28;18.38;;;;;;;11.61;100.00;101554.78;4990033;28;20041;-75
2022/10/02 06:01:49;;;;;;;77.55;16.88;;;;;;;11.67;100.00;101549.47;4999239;28;20124;-75
2022/10/02 06:04:24;;;;;;;67.10;16.38;;;;;;;11.67;100.00;101539.00;5017136;28;20026;-75
2022/10/02 06:06:53;;;;;;;76.50;15.63;;;;;;;11.74;100.00;101550.22;5014573;28;20029;-75
2022/10/02 06:09:30;;;;;;;84.93;16.17;;;;;;;11.76;100.00;101542.34;5010894;28;20034;-75
2022/10/02 06:12:02;;;;;;;85.72;15.60;;;;;;;11.80;100.00;101550.09;5011776;28;20049;-75
2022/10/02 06:14:39;;;;;;;74.93;15.35;;;;;;;11.82;100.00;101565.75;5010374;28;20128;-75
2022/10/02 06:17:21;;;;;;;79.70;15.40;;;;;;;11.87;100.00;101567.44;5011525;28;20462;-75
2022/10/02 06:20:02;;;;;;;70.63;14.52;;;;;;;11.85;100.00;101573.56;5014972;28;20033;-75
2022/10/02 06:22:34;;;;;;;66.45;14.35;;;;;;;11.92;100.00;101578.66;5014548;28;20022;-75
2022/10/02 06:25:30;;;;;;;56.05;13.57;;;;;;;11.93;100.00;101583.03;5014952;28;20014;-75
2022/10/02 06:28:04;;;;;;;71.25;13.75;;;;;;;11.95;100.00;101588.19;5015037;28;20034;-75
2022/10/02 06:30:35;;;;;;;73.07;13.75;;;;;;;11.99;100.00;101586.41;5015073;28;20569;-75
2022/10/02 06:33:14;;;;;;;81.97;13.45;;;;;;;11.99;100.00;101592.47;5015623;28;20018;-75
2022/10/02 06:35:51;;;;;;;79.18;13.00;;;;;;;12.00;100.00;101586.38;5017988;28;20104;-75
2022/10/02 06:38:44;;;;;;;74.57;12.52;;;;;;;12.04;100.00;101579.34;5019090;28;20542;-75
2022/10/02 06:41:31;;;;;;;75.90;13.25;;;;;;;12.09;100.00;101588.81;5016336;28;20030;-76
2022/10/02 06:44:19;;;;;;;61.22;13.57;;;;;;;12.12;100.00;101596.59;5014694;28;20096;-75
2022/10/02 06:47:05;;;;;;;80.38;13.32;;;;;;;12.16;100.00;101592.19;5016760;28;20049;-76
2022/10/02 06:49:48;;;;;;;65.40;13.93;;;;;;;12.18;100.00;101600.88;5015557;28;20038;-75
2022/10/02 06:52:24;;;;;;;;;;;;;;;12.17;100.00;101607.84;5003267;28;20041;-75
2022/10/02 06:55:18;;;;;;;75.25;14.55;;;;;;;12.21;100.00;101613.88;5013697;28;19964;-76
2022/10/02 06:58:07;;;;;;;75.00;14.82;;;;;;;12.20;100.00;101609.56;5006299;28;20053;-75
2022/10/02 07:00:38;;;;;;;57.13;14.60;;;;;;;12.20;100.00;101612.16;5016196;28;20029;-75
2022/10/02 07:03:05;;;;;;;71.65;15.88;;;;;;;12.27;100.00;101618.16;5015802;28;20056;-75
2022/10/02 07:05:55;;;;;;;66.70;16.10;;;;;;;12.30;100.00;101624.19;5015883;28;20080;-75
2022/10/02 07:08:48;;;;;;;73.60;15.88;;;;;;;12.30;100.00;101629.41;5013800;28;20121;-75
2022/10/02 07:11:23;;;;;;;77.43;17.45;;;;;;;12.29;100.00;101627.66;5006100;28;20030;-77
2022/10/02 07:14:26;;;;;;;73.28;18.52;;;;;;;12.31;100.00;101630.25;5014350;28;20049;-78
2022/10/02 07:17:05;;;;;;;67.75;20.08;;;;;;;12.33;100.00;101637.19;5013334;28;20033;-77
2022/10/02 07:19:42;;;;;;;85.15;21.52;;;;;;;12.33;100.00;101642.44;5007002;28;20033;-77
2022/10/02 07:22:34;;;;;;;70.47;19.92;;;;;;;12.34;100.00;101631.06;5010814;28;20050;-76
2022/10/02 07:25:22;;;;;;;81.75;20.65;;;;;;;12.40;100.00;101638.81;5014058;28;20508;-76
2022/10/02 07:28:05;;;;;;;74.07;20.95;;;;;;;12.44;100.00;101637.00;5013600;28;20397;-76
2022/10/02 07:31:00;;;;;;;76.18;21.17;;;;;;;12.48;100.00;101637.78;5013566;28;20116;-75
2022/10/02 07:33:43;;;;;;;;;;;;;;;12.53;100.00;101625.50;5007882;28;20056;-76
2022/10/02 07:36:14;;;;;;;76.53;21.50;;;;;;;12.54;100.00;101632.44;5012974;28;19921;-75
2022/10/02 07:38:58;;;;;;;75.40;20.42;;;;;;;12.57;100.00;101635.88;5013115;28;20508;-75
2022/10/02 07:41:31;;;;;;;84.10;21.13;;;;;;;12.59;100.00;101635.84;5013080;28;20044;-76
2022/10/02 07:43:56;;;;;;;83.22;21.02;;;;;;;12.65;100.00;101639.22;5014711;28;20026;-75
2022/10/02 07:46:40;;;;;;;84.37;22.33;;;;;;;12.71;100.00;101639.97;5012543;28;20052;-75
2022/10/02 07:49:32;;;;;;;87.35;21.65;;;;;;;12.74;100.00;101640.78;5014975;28;20757;-75
2022/10/02 07:52:24;;;;;;;69.30;20.85;;;;;;;12.77;100.00;101643.31;5016949;28;20042;-75
2022/10/02 07:55:14;;;;;;;80.75;21.40;;;;;;;12.83;100.00;101652.81;5012742;28;20142;-75
2022/10/02 07:57:42;;;;;;;78.43;22.90;;;;;;;12.90;100.00;101646.56;5013341;28;20038;-75
2022/10/02 08:00:16;;;;;;;72.22;20.92;;;;;;;12.96;100.00;101648.19;5014285;28;20062;-75
2022/10/02 08:03:14;;;;;;;65.55;20.52;;;;;;;13.06;100.00;101658.44;5009422;28;20025;-75
2022/10/02 08:05:46;;;;;;;81.72;21.80;;;;;;;13.13;100.00;101660.03;4999680;28;20037;-75
2022/10/02 08:08:37;;;;;;;78.55;23.85;;;;;;;13.20;100.00;101658.16;5008004;28;20030;-74
2022/10/02 08:11:14;;;;;;;81.65;22.38;;;;;;;13.29;100.00;101660.59;5003564;28;20037;-75
2022/10/02 08:13:48;;;;;;;78.22;23.30;;;;;;;13.38;100.00;101672.66;5016880;28;20468;-74
2022/10/02 08:16:15;;;;;;;;;;;;;;;13.46;100.00;101673.31;5008670;28;20022;-74
2022/10/02 08:18:58;;;;;;;72.53;23.67;;;;;;;13.51;100.00;101681.09;5011036;28;19928;-74
2022/10/02 08:21:25;;;;;;;79.65;24.55;;;;;;;13.53;100.00;101679.28;5010601;28;20482;-75
2022/10/02 08:23:56;;;;;;;72.80;25.52;;;;;;;13.54;100.00;101687.13;5013615;28;20040;-75
2022/10/02 08:26:26;;;;;;;77.05;25.05;;;;;;;13.58;100.00;101688.78;5013667;28;20033;-74
2022/10/02 08:29:04;;;;;;;68.72;24.10;;;;;;;13.57;100.00;101688.81;5022310;28;20025;-75
2022/10/02 08:31:29;;;;;;;73.07;24.88;;;;;;;13.61;100.00;101687.00;5002805;28;20029;-74
2022/10/02 08:33:56;;;;;;;66.28;23.30;;;;;;;13.62;100.00;101696.56;5008409;28;20505;-75
2022/10/02 08:36:49;;;;;;;68.25;22.35;;;;;;;13.61;100.00;101697.47;5011059;28;20030;-74
2022/10/02 08:39:35;;;;;;;55.57;21.17;;;;;;;13.64;100.00;101690.41;5012740;28;20386;-75
2022/10/02 08:42:22;;;;;;;62.47;20.83;;;;;;;13.71;100.00;101699.00;5012477;28;20466;-74
2022/10/02 08:45:09;;;;;;;60.47;21.13;;;;;;;13.76;100.00;101703.19;5013398;28;20026;-75
2022/10/02 08:47:47;;;;;;;52.58;20.35;;;;;;;13.85;100.00;101712.63;5014590;28;20470;-75
2022/10/02 08:50:28;;;;;;;41.63;18.67;;;;;;;13.78;100.00;101714.53;5011172;28;20021;-75
2022/10/02 08:52:59;;;;;;;39.95;17.15;;;;;;;13.75;100.00;101714.59;5013079;28;20105;-74
2022/10/02 08:55:46;;;;;;;38.10;15.70;;;;;;;13.70;100.00;101708.63;5011295;28;20080;-75
2022/10/02 08:58:20;;;;;;;41.78;15.77;;;;;;;13.77;100.00;101714.56;5010349;28;20034;-75
2022/10/02 09:01:02;;;;;;;29.55;14.80;;;;;;;13.85;100.00;101709.16;5012557;28;20032;-75
2022/10/02 09:03:43;;;;;;;41.40;14.50;;;;;;;13.87;100.00;101715.22;5011785;28;20042;-75
2022/10/02 09:06:33;;;;;;;42.22;14.52;;;;;;;13.91;100.00;101729.97;5015652;28;20057;-75
2022/10/02 09:09:25;;;;;;;31.13;14.35;;;;;;;13.87;100.00;101725.72;5012278;28;20034;-75
2022/10/02 09:12:38;;;;;;;36.53;13.63;;;;;;;13.85;100.00;101725.72;5012646;28;20477;-75
2022/10/02 09:15:09;;;;;;;35.80;13.82;;;;;;;13.84;100.00;101734.50;4939623;28;20036;-75
2022/10/02 09:17:57;;;;;;;37.25;13.80;;;;;;;13.96;100.00;101736.84;5024274;28;20504;-75
2022/10/02 09:20:35;;;;;;;37.50;14.57;;;;;;;14.19;100.00;101727.53;5010320;28;20037;-75
2022/10/02 09:23:47;;;;;;;34.10;14.48;;;;;;;14.33;100.00;101735.94;5014196;28;20069;-76
2022/10/02 09:26:24;;;;;;;34.28;13.27;;;;;;;14.44;100.00;101733.06;5009764;28;20076;-75
2022/10/02 09:29:27;;;;;;;32.10;13.48;;;;;;;14.54;100.00;101724.06;5012764;28;20092;-76
2022/10/02 09:32:17;;;;;;;29.70;12.77;;;;;;;14.52;100.00;101732.00;4999333;28;20037;-76
2022/10/02 09:35:08;;;;;;;29.40;12.48;;;;;;;14.56;100.00;101730.16;5011872;28;20032;-75
2022/10/02 09:37:36;;;;;;;26.15;11.95;;;;;;;14.62;100.00;101743.13;5010914;28;20029;-78
2022/10/02 09:40:17;;;;;;;30.48;11.10;;;;;;;14.57;100.00;101739.75;5012164;28;20029;-76
2022/10/02 09:42:54;;;;;;;24.92;10.55;;;;;;;14.53;100.00;101753.84;5011803;28;20037;-76
2022/10/02 09:45:22;;;;;;;24.90;9.98;;;;;;;14.58;100.00;101745.84;4998521;28;20026;-77
2022/10/02 09:47:52;;;;;;;27.45;11.43;;;;;;;14.70;100.00;101751.63;5012057;28;20042;-75
2022/10/02 09:50:56;;;;;;;20.48;10.40;;;;;;;14.82;100.00;101752.25;5003441;28;20038;-75
2022/10/02 09:53:31;;;;;;;22.10;9.80;;;;;;;14.82;100.00;101749.63;5007197;28;20095;-75
2022/10/02 09:56:08;;;;;;;23.20;9.60;;;;;;;14.80;100.00;101752.25;5007798;28;20030;-76
2022/10/02 09:58:58;;;;;;;22.77;10.43;;;;;;;14.62;100.00;101763.25;5010823;28;20022;-76
2022/10/02 10:01:40;;;;;;;28.60;9.73;;;;;;;14.54;100.00;101763.44;5014060;28;20037;-75
2022/10/02 10:04:27;;;;;;;19.13;10.75;;;;;;;14.58;100.00;101757.19;5011000;28;20046;-75
2022/10/02 10:07:09;;;;;;;28.02;11.38;;;;;;;14.79;100.00;101760.19;5008376;28;20449;-75
2022/10/02 10:09:47;;;;;;;27.92;11.27;;;;;;;15.05;100.00;101760.34;5010455;28;20524;-75
2022/10/02 10:12:32;;;;;;;28.95;11.18;;;;;;;15.05;100.00;101770.00;5010916;28;20581;-75
2022/10/02 10:15:19;;;;;;;20.20;10.88;;;;;;;15.04;100.00;101763.88;5012161;28;20026;-75
2022/10/02 10:18:05;;;;;;;29.35;10.80;;;;;;;15.09;100.00;101763.75;4999336;28;20037;-75
2022/10/02 10:20:36;;;;;;;26.65;10.82;;;;;;;15.20;100.00;101770.44;5010292;28;20076;-75
2022/10/02 10:23:19;;;;;;;25.80;10.38;;;;;;;15.19;100.00;101776.56;5011976;28;20049;-75
2022/10/02 10:25:49;;;;;;;22.73;10.63;;;;;;;14.92;100.00;101778.19;5011662;28;20021;-75
2022/10/02 10:28:52;;;;;;;25.70;9.20;;;;;;;14.78;100.00;101787.31;5011236;28;20034;-75
2022/10/02 10:31:26;;;;;;;25.25;9.68;;;;;;;14.64;100.00;101793.78;5011740;28;20026;-75
2022/10/02 10:34:13;;;;;;;21.55;8.93;;;;;;;14.90;100.00;101802.75;5010986;28;20379;-74
2022/10/02 10:40:08;;;;;;;28.52;8.63;;;;;;;14.91;100.00;101807.09;5011473;28;20041;-75
2022/10/02 10:43:14;;;;;;;18.38;8.43;;;;;;;14.96;100.00;101824.47;5002832;28;20030;-75
2022/10/02 10:46:13;;;;;;;26.05;8.75;;;;;;;14.99;100.00;101810.41;5001020;28;20113;-75
2022/10/02 10:48:55;;;;;;;23.73;8.30;;;;;;;15.01;100.00;101815.59;5004299;28;20044;-72
2022/10/02 10:51:32;;;;;;;20.23;8.27;;;;;;;15.17;100.00;101816.91;5014584;28;20033;-75
2022/10/02 10:54:39;;;;;;;28.08;7.85;;;;;;;15.23;100.00;101817.59;5011883;28;20046;-76
2022/10/02 10:57:21;;;;;;;25.38;7.50;;;;;;;15.26;100.00;101819.28;5013166;28;20030;-75
2022/10/02 11:00:10;;;;;;;24.13;7.05;;;;;;;15.26;100.00;101807.94;5011625;28;20033;-75
2022/10/02 11:02:53;;;;;;;20.45;7.50;;;;;;;15.37;100.00;101805.88;4999521;28;20406;-75
2022/10/02 11:06:04;;;;;;;28.40;7.75;;;;;;;15.64;100.00;101805.06;5011660;28;20271;-75
2022/10/02 11:09:11;;;;;;;20.02;6.35;;;;;;;15.76;100.00;101810.91;4995627;28;20078;-75
2022/10/02 11:12:09;;;;;;;21.98;6.90;;;;;;;15.89;100.00;101804.38;5014121;28;20548;-75
2022/10/02 11:14:41;;;;;;;23.05;6.68;;;;;;;16.04;100.00;101806.53;4988593;28;20117;-75
2022/10/02 11:17:27;;;;;;;17.65;5.97;;;;;;;16.18;100.00;101807.88;5013684;28;20478;-75
2022/10/02 11:20:17;;;;;;;19.35;5.90;;;;;;;16.29;100.00;101808.41;5014934;28;20034;-75
2022/10/02 11:23:14;;;;;;;18.17;6.68;;;;;;;16.31;100.00;101811.84;5010492;28;20478;-75
2022/10/02 11:26:11;;;;;;;17.17;5.90;;;;;;;16.47;100.00;101809.56;5014375;28;20040;-75
2022/10/02 11:29:03;;;;;;;15.00;5.00;;;;;;;16.48;100.00;101819.19;5003610;28;20076;-75
2022/10/02 11:31:50;;;;;;;18.08;4.82;;;;;;;16.31;100.00;101820.59;5013313;28;20014;-75
2022/10/02 11:34:22;;;;;;;14.48;4.85;;;;;;;16.04;100.00;101834.63;5014719;28;20179;-75
2022/10/02 11:37:26;;;;;;;10.90;4.63;;;;;;;15.83;100.00;101836.13;5000562;28;20544;-75
2022/10/02 11:40:15;;;;;;;16.10;5.18;;;;;;;15.78;100.00;101828.34;5013576;28;20463;-75
2022/10/02 11:43:31;;;;;;;18.75;4.88;;;;;;;15.76;100.00;101831.94;5013966;28;20054;-75
2022/10/02 11:46:05;;;;;;;18.60;5.85;;;;;;;15.61;100.00;101841.97;4926191;29;20071;-75
2022/10/02 11:48:55;;;;;;;19.77;6.15;;;;;;;15.57;100.00;101842.97;5009917;28;20038;-75
2022/10/02 11:51:54;;;;;;;23.50;6.70;;;;;;;15.96;100.00;101839.22;5012759;28;20482;-75
2022/10/02 11:54:31;;;;;;;18.08;7.15;;;;;;;16.60;100.00;101834.59;5013704;28;20485;-75
2022/10/02 11:57:19;;;;;;;20.67;6.45;;;;;;;17.20;100.00;101835.22;5014109;28;20049;-75
2022/10/02 12:00:11;;;;;;;22.27;8.02;;;;;;;17.48;100.00;101829.81;5013190;28;20088;-75
2022/10/02 12:02:45;;;;;;;17.75;7.00;;;;;;;17.35;100.00;101826.75;5013354;28;20105;-75
2022/10/02 12:05:36;;;;;;;14.00;6.95;;;;;;;17.01;100.00;101829.75;5013022;28;20022;-75
2022/10/02 12:08:16;;;;;;;16.40;7.63;;;;;;;16.38;100.00;101837.94;5014029;28;20037;-76